createdAt,value
2023-04-01T00:04:08.506Z,16.71
2023-04-01T00:09:11.341Z,16.56
2023-04-01T00:14:15.611Z,16.42
2023-04-01T00:19:18.306Z,16.22
2023-04-01T00:24:21.064Z,16.64
2023-04-01T00:29:30.169Z,16.55
2023-04-01T00:34:32.968Z,16.72
2023-04-01T00:39:37.437Z,16.60
2023-04-01T00:44:42.135Z,16.22
2023-04-01T00:49:48.602Z,16.39
2023-04-01T00:54:57.897Z,16.20
2023-04-01T01:00:02.235Z,15.84
2023-04-01T01:05:06.593Z,15.64
2023-04-01T01:10:16.573Z,15.80
2023-04-01T01:15:26.625Z,15.56
2023-04-01T01:20:57.524Z,15.96
2023-04-01T01:26:19.300Z,16.00
2023-04-01T01:31:27.141Z,16.12
2023-04-01T01:36:35.621Z,16.02
2023-04-01T01:41:43.900Z,16.27
2023-04-01T01:46:47.748Z,16.15
2023-04-01T01:51:51.844Z,16.11
2023-04-01T01:57:08.460Z,16.32
2023-04-01T02:02:14.958Z,16.00
2023-04-01T02:07:24.288Z,16.11
2023-04-01T02:12:27.351Z,16.19
2023-04-01T02:17:33.348Z,15.49
2023-04-01T02:22:43.819Z,16.02
2023-04-01T02:27:48.241Z,16.12
2023-04-01T02:32:51.645Z,16.46
2023-04-01T02:37:57.067Z,16.41
2023-04-01T02:43:00.042Z,15.91
2023-04-01T02:48:02.838Z,16.15
2023-04-01T02:53:07.288Z,15.94
2023-04-01T02:58:10.363Z,15.57
2023-04-01T03:03:14.572Z,15.29
2023-04-01T03:08:18.768Z,14.97
2023-04-01T03:13:21.532Z,15.41
2023-04-01T03:18:24.365Z,15.74
2023-04-01T03:23:28.965Z,15.20
2023-04-01T03:28:31.710Z,15.28
2023-04-01T03:33:34.985Z,15.45
2023-04-01T03:38:39.198Z,15.54
2023-04-01T03:43:42.054Z,15.52
2023-04-01T03:48:44.910Z,15.30
2023-04-01T03:53:49.195Z,15.50
2023-04-01T03:58:51.994Z,15.52
2023-04-01T04:03:55.458Z,15.66
2023-04-01T04:09:01.355Z,15.89
2023-04-01T04:14:06.422Z,16.15
2023-04-01T04:19:09.447Z,15.59
2023-04-01T04:24:14.026Z,15.71
2023-04-01T04:29:35.355Z,15.54
2023-04-01T04:34:38.400Z,15.46
2023-04-01T04:39:42.600Z,15.25
2023-04-01T04:44:45.538Z,15.46
2023-04-01T04:49:48.342Z,15.32
2023-04-01T04:54:52.533Z,15.24
2023-04-01T04:59:55.522Z,15.23
2023-04-01T05:05:27.548Z,15.34
2023-04-01T05:10:32.415Z,15.54
2023-04-01T05:15:35.467Z,14.98
2023-04-01T05:20:38.736Z,15.02
2023-04-01T05:25:43.073Z,14.87
2023-04-01T05:30:46.506Z,15.17
2023-04-01T05:36:08.378Z,15.48
2023-04-01T05:41:12.518Z,15.63
2023-04-01T05:46:19.187Z,14.96
2023-04-01T05:51:27.888Z,14.53
2023-04-01T05:56:31.975Z,13.65
2023-04-01T06:01:35.719Z,13.77
2023-04-01T06:06:38.643Z,13.87
2023-04-01T06:11:59.674Z,13.88
2023-04-01T06:17:25.662Z,13.20
2023-04-01T06:23:03.977Z,13.10
2023-04-01T06:28:40.423Z,12.96
2023-04-01T06:33:59.142Z,13.17
2023-04-01T06:39:17.951Z,12.32
2023-04-01T06:44:31.164Z,12.56
2023-04-01T06:50:01.597Z,12.92
2023-04-01T06:55:27.956Z,12.20
2023-04-01T07:00:58.365Z,11.59
2023-04-01T07:06:05.271Z,13.20
2023-04-01T07:11:18.743Z,12.32
2023-04-01T07:16:46.080Z,12.98
2023-04-01T07:21:52.078Z,12.52
2023-04-01T07:27:03.679Z,11.76
2023-04-01T07:32:24.283Z,12.06
2023-04-01T07:37:33.053Z,12.20
2023-04-01T07:42:47.704Z,11.82
2023-04-01T07:48:08.938Z,11.89
2023-04-01T07:53:20.317Z,11.51
2023-04-01T07:58:36.599Z,11.38
2023-04-01T08:04:00.420Z,11.10
2023-04-01T08:09:11.258Z,11.57
2023-04-01T08:14:57.966Z,11.01
2023-04-01T08:20:30.030Z,12.12
2023-04-01T08:25:36.170Z,11.42
2023-04-01T08:30:44.868Z,12.50
2023-04-01T08:35:55.045Z,11.05
2023-04-01T08:41:20.697Z,11.39
2023-04-01T08:47:22.372Z,10.94
2023-04-01T08:52:36.664Z,10.91
2023-04-01T08:57:54.029Z,11.84
2023-04-01T09:04:00.773Z,11.69
2023-04-01T09:09:36.203Z,10.99
2023-04-01T09:15:20.433Z,10.75
2023-04-01T09:20:43.618Z,11.08
2023-04-01T09:26:07.101Z,11.50
2023-04-01T09:31:27.519Z,11.54
2023-04-01T09:37:03.188Z,11.90
2023-04-01T09:42:28.013Z,12.05
2023-04-01T09:47:59.347Z,11.52
2023-04-01T09:53:16.698Z,12.04
2023-04-01T09:59:03.989Z,11.16
2023-04-01T10:05:06.479Z,11.84
2023-04-01T10:10:46.943Z,11.61
2023-04-01T10:16:22.921Z,11.75
2023-04-01T10:21:59.944Z,12.43
2023-04-01T10:27:23.282Z,12.73
2023-04-01T10:33:29.912Z,11.91
2023-04-01T10:39:06.115Z,12.44
2023-04-01T10:44:51.044Z,12.36
2023-04-01T10:50:28.145Z,12.07
2023-04-01T10:56:13.468Z,12.22
2023-04-01T11:02:11.342Z,12.07
2023-04-01T11:08:26.860Z,12.56
2023-04-01T11:14:01.527Z,12.55
2023-04-01T11:19:27.003Z,11.49
2023-04-01T11:24:59.713Z,11.54
2023-04-01T11:30:31.185Z,11.34
2023-04-01T11:36:16.333Z,10.46
2023-04-01T11:41:32.611Z,11.34
2023-04-01T11:47:07.403Z,11.64
2023-04-01T11:52:28.124Z,11.94
2023-04-01T11:57:53.096Z,12.17
2023-04-01T12:03:14.185Z,11.06
2023-04-01T12:08:33.477Z,11.04
2023-04-01T12:13:46.676Z,11.31
2023-04-01T12:18:56.507Z,11.04
2023-04-01T12:24:27.022Z,11.13
2023-04-01T12:29:54.540Z,11.21
2023-04-01T12:35:15.132Z,11.48
2023-04-01T12:41:02.884Z,11.22
2023-04-01T12:46:17.257Z,11.10
2023-04-01T12:51:33.086Z,10.48
2023-04-01T12:56:45.410Z,11.04
2023-04-01T13:02:03.584Z,10.95
2023-04-01T13:07:28.397Z,11.43
2023-04-01T13:12:51.777Z,11.00
2023-04-01T13:18:05.554Z,11.52
2023-04-01T13:23:21.165Z,11.04
2023-04-01T13:28:27.898Z,11.59
2023-04-01T13:33:41.254Z,10.16
2023-04-01T13:39:05.154Z,10.31
2023-04-01T13:44:14.997Z,10.79
2023-04-01T13:49:51.404Z,10.76
2023-04-01T13:55:20.510Z,10.97
2023-04-01T14:00:35.910Z,11.65
2023-04-01T14:05:53.618Z,10.62
2023-04-01T14:11:15.365Z,11.14
2023-04-01T14:16:36.074Z,10.62
2023-04-01T14:21:48.153Z,10.79
2023-04-01T14:27:14.629Z,11.34
2023-04-01T14:32:29.272Z,11.22
2023-04-01T14:38:19.373Z,11.22
2023-04-01T14:43:53.895Z,10.57
2023-04-01T14:49:02.050Z,10.72
2023-04-01T14:54:10.218Z,9.94
2023-04-01T14:59:28.372Z,9.51
2023-04-01T15:04:49.734Z,9.72
2023-04-01T15:10:01.373Z,9.86
2023-04-01T15:15:25.944Z,9.73
2023-04-01T15:20:47.627Z,9.82
2023-04-01T15:26:09.788Z,10.26
2023-04-01T15:31:17.929Z,9.73
2023-04-01T15:36:31.090Z,9.99
2023-04-01T15:41:43.627Z,9.93
2023-04-01T15:46:50.727Z,9.77
2023-04-01T15:52:05.123Z,9.82
2023-04-01T15:57:30.886Z,10.53
2023-04-01T16:02:40.546Z,8.99
2023-04-01T16:07:57.344Z,9.51
2023-04-01T16:13:12.494Z,9.31
2023-04-01T16:18:42.802Z,9.10
2023-04-01T16:23:50.690Z,9.26
2023-04-01T16:28:59.755Z,9.28
2023-04-01T16:34:11.047Z,9.18
2023-04-01T16:39:32.051Z,9.24
2023-04-01T16:44:50.648Z,9.18
2023-04-01T16:50:00.360Z,8.68
2023-04-01T16:55:14.491Z,8.85
2023-04-01T17:00:25.885Z,9.34
2023-04-01T17:05:44.369Z,8.81
2023-04-01T17:10:59.029Z,9.12
2023-04-01T17:16:16.869Z,8.99
2023-04-01T17:21:27.732Z,9.50
2023-04-01T17:26:39.288Z,8.59
2023-04-01T17:31:48.360Z,9.23
2023-04-01T17:37:08.616Z,8.47
2023-04-01T17:42:16.814Z,9.25
2023-04-01T17:47:41.128Z,8.88
2023-04-01T17:52:50.740Z,8.97
2023-04-01T17:58:02.567Z,8.74
2023-04-01T18:03:19.147Z,8.96
2023-04-01T18:08:38.973Z,9.20
2023-04-01T18:14:25.557Z,9.20
2023-04-01T18:19:37.987Z,8.59
2023-04-01T18:24:48.092Z,8.20
2023-04-01T18:29:54.273Z,8.50
2023-04-01T18:35:04.530Z,8.38
2023-04-01T18:40:23.432Z,8.65
2023-04-01T18:45:30.971Z,8.44
2023-04-01T18:50:45.406Z,8.18
2023-04-01T18:55:54.968Z,8.34
2023-04-01T19:01:18.315Z,7.57
2023-04-01T19:06:26.886Z,8.09
2023-04-01T19:11:41.210Z,8.32
2023-04-01T19:16:55.353Z,8.45
2023-04-01T19:22:41.901Z,9.02
2023-04-01T19:27:51.566Z,8.77
2023-04-01T19:33:03.602Z,9.07
2023-04-01T19:38:12.630Z,9.51
2023-04-01T19:43:29.478Z,9.22
2023-04-01T19:48:46.631Z,8.78
2023-04-01T19:54:00.406Z,8.61
2023-04-01T19:59:12.785Z,8.54
2023-04-01T20:04:19.165Z,8.13
2023-04-01T20:09:40.737Z,8.11
2023-04-01T20:14:49.149Z,7.82
2023-04-01T20:19:59.831Z,7.77
2023-04-01T20:25:13.804Z,7.24
2023-04-01T20:30:55.444Z,7.62
2023-04-01T20:36:08.553Z,7.34
2023-04-01T20:41:15.408Z,7.75
2023-04-01T20:46:24.605Z,7.51
2023-04-01T20:51:31.862Z,7.37
2023-04-01T20:56:47.294Z,7.44
2023-04-01T21:02:00.163Z,7.11
2023-04-01T21:07:13.132Z,7.06
2023-04-01T21:12:29.481Z,6.78
2023-04-01T21:17:44.006Z,6.51
2023-04-01T21:23:01.152Z,6.48
2023-04-01T21:28:20.013Z,7.07
2023-04-01T21:33:39.515Z,6.56
2023-04-01T21:38:58.146Z,6.58
2023-04-01T21:44:23.368Z,6.55
2023-04-01T21:49:48.587Z,6.80
2023-04-01T21:55:34.528Z,7.09
2023-04-01T22:00:40.925Z,6.42
2023-04-01T22:05:53.399Z,6.81
2023-04-01T22:11:04.477Z,6.40
2023-04-01T22:16:16.330Z,5.99
2023-04-01T22:21:28.048Z,6.20
2023-04-01T22:26:38.718Z,6.41
2023-04-01T22:31:47.253Z,6.21
2023-04-01T22:36:58.370Z,6.23
2023-04-01T22:42:12.544Z,6.56
2023-04-01T22:47:25.704Z,6.08
2023-04-01T22:52:37.758Z,6.19
2023-04-01T22:57:46.861Z,5.83
2023-04-01T23:03:03.755Z,6.02
2023-04-01T23:08:47.068Z,5.84
2023-04-01T23:13:54.761Z,5.56
2023-04-01T23:19:04.711Z,5.65
2023-04-01T23:24:18.981Z,6.17
2023-04-01T23:29:23.124Z,5.97
2023-04-01T23:34:33.898Z,5.27
2023-04-01T23:39:40.447Z,5.72
2023-04-01T23:44:45.365Z,5.55
2023-04-01T23:49:51.521Z,6.08
2023-04-01T23:54:58.546Z,5.87
